Time;durP1;ratioP1;P1;durP2;ratioP2;P2;SDS_P1;SDS_P2;PMS_P1;PMS_P2;Temp;Humidity;BMP_temperature;BMP_pressure;BME280_temperature;BME280_humidity;BME280_pressure;Samples;Min_cycle;Max_cycle;Signal;HPM_P1;HPM_P2
2023/08/13 00:00:48;;;;;;;;;;;;;;;27.45;37.16;101063.63;5076654;28;1910;-32
2023/08/13 00:03:14;;;;;;;;;;;;;;;27.34;37.33;101061.31;5076662;28;1098;-33
2023/08/13 00:05:40;;;;;;;;;;;;;;;27.49;37.18;101061.41;5077251;28;976;-33
2023/08/13 00:08:05;;;;;;;;;;;;;;;27.37;37.36;101058.25;5060998;28;932;-31
2023/08/13 00:10:31;;;;;;;;;;;;;;;27.42;37.44;101053.16;5076544;28;1205;-28
2023/08/13 00:12:56;;;;;;;;;;;;;;;27.26;37.39;101064.88;5046040;28;1162;-29
2023/08/13 00:15:22;;;;;;;;;;;;;;;27.44;37.70;101066.50;5067463;28;1040;-33
2023/08/13 00:17:47;;;;;;;;;;;;;;;27.25;36.89;101068.63;5074487;28;2625;-29
2023/08/13 00:20:13;;;;;;;;;;;;;;;27.36;37.77;101065.50;5067354;28;1971;-32
2023/08/13 00:22:39;;;;;;;;;;;;;;;27.23;37.60;101065.25;5076579;28;1035;-32
2023/08/13 00:25:04;;;;;;;;;;;;;;;27.29;37.69;101063.72;5076361;28;1036;-31
2023/08/13 00:27:30;;;;;;;;;;;;;;;27.40;37.28;101068.72;5076350;28;1090;-30
2023/08/13 00:29:56;;;;;;;;;;;;;;;27.31;37.86;101081.41;5058069;28;1045;-29
2023/08/13 00:32:21;;;;;;;;;;;;;;;27.36;37.61;101070.91;5060903;28;1100;-32
2023/08/13 00:34:47;;;;;;;;;;;;;;;27.28;38.06;101076.34;5058423;28;1107;-35
2023/08/13 00:37:12;;;;;;;;;;;;;;;27.38;37.12;101062.63;5076812;28;1070;-31
2023/08/13 00:39:38;;;;;;;;;;;;;;;27.38;37.40;101062.63;5057577;28;1959;-31
2023/08/13 00:42:04;;;;;;;;;;;;;;;27.36;37.58;101059.28;5075149;28;996;-32
2023/08/13 00:44:29;;;;;;;;;;;;;;;27.30;37.76;101062.69;5066614;28;877;-30
2023/08/13 00:46:55;;;;;;;;;;;;;;;27.35;37.54;101058.44;5067594;28;2393;-33
2023/08/13 00:49:21;;;;;;;;;;;;;;;27.18;37.55;101057.66;5047688;28;1140;-30
2023/08/13 00:51:46;;;;;;;;;;;;;;;27.30;37.64;101052.72;5042219;28;1163;-33
2023/08/13 00:54:12;;;;;;;;;;;;;;;27.07;37.42;101045.41;5074747;28;1087;-30
2023/08/13 00:56:37;;;;;;;;;;;;;;;27.25;37.57;101037.06;5059783;28;1092;-27
2023/08/13 00:59:04;;;;;;;;;;;;;;;27.10;37.69;101042.34;5046953;28;1112;-30
2023/08/13 01:01:29;;;;;;;;;;;;;;;27.25;37.82;101045.16;5054587;28;1921;-31
2023/08/13 01:03:55;;;;;;;;;;;;;;;27.14;37.47;101042.84;5057415;28;1075;-33
2023/08/13 01:06:24;;;;;;;;;;;;;;;27.33;37.74;101038.88;5055960;28;1147;-31
2023/08/13 01:08:50;;;;;;;;;;;;;;;27.26;37.64;101041.44;5021147;28;1044;-31
2023/08/13 01:11:19;;;;;;;;;;;;;;;27.32;37.86;101036.34;5071641;28;1012;-28
2023/08/13 01:13:45;;;;;;;;;;;;;;;27.26;37.36;101035.16;5057864;28;1016;-30
2023/08/13 01:16:11;;;;;;;;;;;;;;;27.36;37.70;101034.97;5038628;28;2254;-31
2023/08/13 01:18:37;;;;;;;;;;;;;;;27.24;37.49;101045.34;5072928;28;1150;-33
2023/08/13 01:21:04;;;;;;;;;;;;;;;27.30;37.55;101047.31;5040606;28;1910;-31
2023/08/13 01:23:29;;;;;;;;;;;;;;;27.30;36.90;101044.63;5057052;28;1012;-28
2023/08/13 01:25:57;;;;;;;;;;;;;;;27.26;37.32;101044.13;5040354;28;1071;-33
2023/08/13 01:28:23;;;;;;;;;;;;;;;27.21;37.90;101057.31;5038287;28;1079;-34
2023/08/13 01:30:49;;;;;;;;;;;;;;;27.23;37.71;101044.47;5068829;28;1172;-31
2023/08/13 01:33:18;;;;;;;;;;;;;;;27.14;37.43;101046.38;5037052;28;1024;-30
2023/08/13 01:35:44;;;;;;;;;;;;;;;27.22;37.53;101041.97;5055115;28;1076;-30
2023/08/13 01:38:09;;;;;;;;;;;;;;;27.26;37.58;101045.97;5057670;28;1155;-29
2023/08/13 01:40:35;;;;;;;;;;;;;;;27.17;37.91;101047.06;5059653;28;1982;-32
2023/08/13 01:43:01;;;;;;;;;;;;;;;27.25;37.75;101038.91;5056213;28;1114;-32
2023/08/13 01:45:27;;;;;;;;;;;;;;;27.25;37.52;101045.16;5063535;28;1156;-33
2023/08/13 01:47:53;;;;;;;;;;;;;;;27.26;37.89;101046.81;5052252;28;2515;-31
2023/08/13 01:50:19;;;;;;;;;;;;;;;27.10;37.91;101055.00;5062013;28;1003;-34
2023/08/13 01:52:45;;;;;;;;;;;;;;;27.22;37.70;101052.75;5070035;28;1047;-33
2023/08/13 01:55:11;;;;;;;;;;;;;;;27.10;37.83;101049.59;5073837;28;1040;-31
2023/08/13 01:57:36;;;;;;;;;;;;;;;27.22;37.50;101050.91;5041286;28;1167;-33
2023/08/13 02:00:02;;;;;;;;;;;;;;;27.11;37.52;101052.13;5077077;28;1977;-33
2023/08/13 02:02:27;;;;;;;;;;;;;;;27.21;37.94;101057.31;5079507;28;1107;-33
2023/08/13 02:04:53;;;;;;;;;;;;;;;27.13;37.63;101046.56;5078826;28;1068;-32
2023/08/13 02:07:19;;;;;;;;;;;;;;;27.28;37.99;101059.34;5073413;28;1131;-30
2023/08/13 02:09:44;;;;;;;;;;;;;;;27.14;37.74;101057.19;5045672;28;1124;-28
2023/08/13 02:12:10;;;;;;;;;;;;;;;27.19;37.75;101055.81;5078814;28;995;-33
2023/08/13 02:14:35;;;;;;;;;;;;;;;26.95;37.89;101061.13;5060774;28;1143;-33
2023/08/13 02:17:01;;;;;;;;;;;;;;;27.19;37.59;101066.63;5059300;28;2682;-35
2023/08/13 02:19:26;;;;;;;;;;;;;;;27.08;37.60;101065.13;5073139;28;965;-35
2023/08/13 02:21:52;;;;;;;;;;;;;;;27.20;38.00;101066.44;5070220;28;1965;-29
2023/08/13 02:24:17;;;;;;;;;;;;;;;27.06;37.26;101065.31;5060246;28;1236;-31
2023/08/13 02:26:43;;;;;;;;;;;;;;;27.24;37.48;101067.75;5060663;28;1070;-29
2023/08/13 02:29:09;;;;;;;;;;;;;;;27.11;37.41;101071.03;5079141;28;1074;-31
2023/08/13 02:31:34;;;;;;;;;;;;;;;27.24;37.75;101072.34;5072227;28;1023;-36
2023/08/13 02:34:00;;;;;;;;;;;;;;;27.13;37.27;101068.16;5063335;28;1132;-31
2023/08/13 02:36:25;;;;;;;;;;;;;;;27.26;37.51;101071.13;5078394;28;1015;-29
2023/08/13 02:38:51;;;;;;;;;;;;;;;27.05;37.29;101074.44;5078583;28;1039;-30
2023/08/13 02:41:17;;;;;;;;;;;;;;;27.16;37.97;101072.38;5060270;28;1910;-33
2023/08/13 02:43:56;;;;;;;;;;;;;;;27.21;37.34;101076.22;5053475;28;1209;-29
2023/08/13 02:46:23;;;;;;;;;;;;;;;27.21;37.88;101070.00;5063873;28;2402;-30
2023/08/13 02:48:50;;;;;;;;;;;;;;;26.98;37.71;101073.41;5060022;28;1196;-30
2023/08/13 02:51:16;;;;;;;;;;;;;;;27.23;37.45;101073.34;5060495;28;1264;-30
2023/08/13 02:53:41;;;;;;;;;;;;;;;27.07;37.36;101077.81;5060431;28;1294;-30
2023/08/13 02:56:07;;;;;;;;;;;;;;;27.19;37.78;101072.03;5069089;28;1086;-29
2023/08/13 02:58:33;;;;;;;;;;;;;;;26.95;36.79;101077.31;5063944;28;1171;-31
2023/08/13 03:00:59;;;;;;;;;;;;;;;27.12;37.67;101070.03;5059948;28;1913;-29
2023/08/13 03:03:24;;;;;;;;;;;;;;;27.13;37.57;101074.41;5060540;28;1226;-29
2023/08/13 03:05:50;;;;;;;;;;;;;;;27.17;37.60;101074.06;5077862;28;1083;-30
2023/08/13 03:08:16;;;;;;;;;;;;;;;26.99;37.61;101078.63;5068145;28;1097;-29
2023/08/13 03:10:41;;;;;;;;;;;;;;;27.19;37.87;101069.31;5070663;28;1007;-29
2023/08/13 03:13:07;;;;;;;;;;;;;;;27.14;37.69;101076.09;5059386;28;1134;-30
2023/08/13 03:15:32;;;;;;;;;;;;;;;27.08;37.81;101060.59;5059174;28;2371;-33
2023/08/13 03:17:58;;;;;;;;;;;;;;;27.14;36.90;101067.97;5058013;28;1226;-33
2023/08/13 03:20:26;;;;;;;;;;;;;;;27.09;37.33;101072.25;5049337;28;1975;-29
2023/08/13 03:22:52;;;;;;;;;;;;;;;26.96;36.91;101076.28;5073669;28;1000;-31
2023/08/13 03:25:17;;;;;;;;;;;;;;;27.05;37.66;101073.59;5059130;28;1245;-34
2023/08/13 03:27:43;;;;;;;;;;;;;;;26.93;38.16;101075.78;5059635;28;1250;-31
2023/08/13 03:30:14;;;;;;;;;;;;;;;26.92;38.01;101069.56;5059185;28;1245;-32
2023/08/13 03:32:40;;;;;;;;;;;;;;;27.17;37.08;101077.59;5053269;28;1337;-31
2023/08/13 03:35:06;;;;;;;;;;;;;;;27.16;37.67;101066.97;5059774;28;1171;-32
2023/08/13 03:37:32;;;;;;;;;;;;;;;26.60;38.02;101071.31;5058902;28;2097;-31
2023/08/13 03:39:57;;;;;;;;;;;;;;;26.35;38.14;101074.91;5077648;28;1979;-34
2023/08/13 03:42:23;;;;;;;;;;;;;;;26.08;37.85;101071.50;5077321;28;1256;-32
2023/08/13 03:44:50;;;;;;;;;;;;;;;25.93;37.95;101068.63;5047227;28;1395;-30
2023/08/13 03:47:16;;;;;;;;;;;;;;;26.04;37.32;101075.56;5059191;28;1757;-31
2023/08/13 03:49:41;;;;;;;;;;;;;;;26.07;37.07;101083.31;5059735;28;1525;-33
2023/08/13 03:52:09;;;;;;;;;;;;;;;25.61;38.07;101068.38;5039069;28;1139;-32
2023/08/13 03:54:35;;;;;;;;;;;;;;;25.27;38.48;101066.63;5041486;28;1139;-34
2023/08/13 03:57:01;;;;;;;;;;;;;;;25.58;38.24;101071.41;5039889;28;1276;-31
2023/08/13 03:59:27;;;;;;;;;;;;;;;25.02;40.42;101071.91;5035541;28;1526;-33
2023/08/13 04:01:52;;;;;;;;;;;;;;;24.84;39.77;101070.06;5051301;28;1929;-32
2023/08/13 04:04:18;;;;;;;;;;;;;;;25.05;40.79;101069.72;5068786;28;977;-32
2023/08/13 04:06:44;;;;;;;;;;;;;;;25.16;39.87;101068.59;5076201;28;1016;-28
2023/08/13 04:09:09;;;;;;;;;;;;;;;25.32;39.21;101069.66;5042639;28;1220;-31
2023/08/13 04:11:35;;;;;;;;;;;;;;;25.85;37.56;101076.72;5045392;28;1338;-31
2023/08/13 04:14:00;;;;;;;;;;;;;;;26.08;37.11;101073.34;5076769;28;1198;-29
2023/08/13 04:16:27;;;;;;;;;;;;;;;26.37;36.62;101077.44;5055876;28;2401;-26
2023/08/13 04:18:53;;;;;;;;;;;;;;;26.09;36.70;101072.38;5058822;28;1178;-29
2023/08/13 04:21:20;;;;;;;;;;;;;;;26.26;36.83;101071.34;5044495;28;1914;-29
2023/08/13 04:23:46;;;;;;;;;;;;;;;26.03;36.94;101071.16;5051803;28;1112;-28
2023/08/13 04:26:12;;;;;;;;;;;;;;;25.66;36.99;101068.78;5058343;28;1178;-28
2023/08/13 04:28:38;;;;;;;;;;;;;;;25.97;36.91;101075.41;5076924;28;1082;-28
2023/08/13 04:31:03;;;;;;;;;;;;;;;26.04;36.53;101067.47;5057856;28;1035;-29
2023/08/13 04:33:33;;;;;;;;;;;;;;;25.75;36.33;101066.09;5043580;28;1111;-35
2023/08/13 04:35:58;;;;;;;;;;;;;;;25.08;36.38;101065.88;5072925;28;1678;-30
2023/08/13 04:38:26;;;;;;;;;;;;;;;24.89;38.33;101061.56;5058536;28;1198;-28
2023/08/13 04:40:54;;;;;;;;;;;;;;;24.84;39.11;101067.38;5045763;28;1910;-26
2023/08/13 04:43:21;;;;;;;;;;;;;;;24.66;40.05;101068.31;5035965;28;1243;-26
2023/08/13 04:45:47;;;;;;;;;;;;;;;24.54;40.24;101070.41;5057110;28;1778;-28
2023/08/13 04:48:18;;;;;;;;;;;;;;;24.57;41.83;101070.09;5052660;28;914;-28
2023/08/13 04:50:44;;;;;;;;;;;;;;;25.12;39.95;101071.78;5057570;28;1301;-26
2023/08/13 04:53:10;;;;;;;;;;;;;;;24.67;40.67;101074.53;5041653;28;1245;-30
2023/08/13 04:55:36;;;;;;;;;;;;;;;24.34;40.64;101067.06;5046340;28;1226;-30
2023/08/13 04:58:01;;;;;;;;;;;;;;;24.41;40.68;101075.34;5059510;28;1080;-31
2023/08/13 05:00:27;;;;;;;;;;;;;;;24.25;41.30;101078.75;5076073;28;1910;-32
2023/08/13 05:02:52;;;;;;;;;;;;;;;24.19;42.11;101074.88;5075643;28;1023;-28
2023/08/13 05:05:18;;;;;;;;;;;;;;;24.65;40.82;101077.38;5057875;28;1395;-31
2023/08/13 05:07:44;;;;;;;;;;;;;;;24.58;40.88;101077.19;5058058;28;1221;-30
2023/08/13 05:10:10;;;;;;;;;;;;;;;24.44;40.77;101080.44;5039866;28;1364;-23
2023/08/13 05:12:35;;;;;;;;;;;;;;;24.15;41.06;101081.50;5051240;28;1651;-24
2023/08/13 05:15:01;;;;;;;;;;;;;;;24.29;42.47;101093.59;5036965;28;1219;-30
2023/08/13 05:17:28;;;;;;;;;;;;;;;24.78;39.66;101093.09;5036707;28;2684;-28
2023/08/13 05:19:54;;;;;;;;;;;;;;;24.31;41.02;101099.66;5058839;28;2020;-26
2023/08/13 05:22:19;;;;;;;;;;;;;;;24.20;41.10;101100.75;5047029;28;1296;-24
2023/08/13 05:24:47;;;;;;;;;;;;;;;24.03;43.38;101089.81;5056741;28;1345;-25
2023/08/13 05:27:12;;;;;;;;;;;;;;;24.83;39.27;101098.84;5046828;28;1173;-28
2023/08/13 05:29:38;;;;;;;;;;;;;;;24.31;40.60;101092.44;5057181;28;1274;-28
2023/08/13 05:32:04;;;;;;;;;;;;;;;24.18;40.53;101106.28;5057775;28;1274;-28
2023/08/13 05:34:31;;;;;;;;;;;;;;;24.01;40.97;101102.56;5040539;28;1128;-27
2023/08/13 05:36:56;;;;;;;;;;;;;;;24.03;41.07;101097.03;5038700;28;1376;-26
2023/08/13 05:39:22;;;;;;;;;;;;;;;24.11;43.15;101099.78;5041434;28;1470;-26
2023/08/13 05:41:48;;;;;;;;;;;;;;;24.82;39.46;101099.00;5049522;28;1906;-29
2023/08/13 05:44:14;;;;;;;;;;;;;;;25.43;38.96;101108.91;5066342;28;1280;-29
2023/08/13 05:46:39;;;;;;;;;;;;;;;25.96;37.22;101100.66;5039944;28;2449;-28
2023/08/13 05:49:05;;;;;;;;;;;;;;;25.84;37.87;101100.13;5037482;28;1036;-27
2023/08/13 05:51:30;;;;;;;;;;;;;;;25.40;41.06;101101.16;5068246;28;1080;-32
2023/08/13 05:53:56;;;;;;;;;;;;;;;22.80;44.53;101104.25;5070744;28;1483;-30
2023/08/13 05:56:21;;;;;;;;;;;;;;;21.83;46.61;101100.47;5046478;28;867;-32
2023/08/13 05:58:47;;;;;;;;;;;;;;;21.60;49.10;101097.16;5061023;28;1265;-26
2023/08/13 06:01:12;;;;;;;;;;;;;;;23.68;43.92;101100.38;5074535;28;1910;-35
2023/08/13 06:03:38;;;;;;;;;;;;;;;22.24;46.23;101097.66;5075554;28;1198;-34
2023/08/13 06:06:04;;;;;;;;;;;;;;;20.95;49.44;101098.31;5074550;28;1027;-38
2023/08/13 06:08:29;;;;;;;;;;;;;;;21.74;50.56;101096.75;5071521;28;1061;-39
2023/08/13 06:10:55;;;;;;;;;;;;;;;24.12;42.03;101098.81;5055232;28;930;-38
2023/08/13 06:13:20;;;;;;;;;;;;;;;21.23;48.92;101098.59;5071688;28;1162;-38
2023/08/13 06:15:46;;;;;;;;;;;;;;;21.06;54.55;101108.06;5065266;28;2549;-36
2023/08/13 06:18:11;;;;;;;;;;;;;;;24.11;43.84;101102.47;5071768;28;1199;-33
2023/08/13 06:20:37;;;;;;;;;;;;;;;21.55;48.12;101102.06;5073781;28;1973;-37
2023/08/13 06:23:03;;;;;;;;;;;;;;;20.93;49.62;101106.47;5059696;28;1398;-35
2023/08/13 06:25:28;;;;;;;;;;;;;;;21.48;51.38;101107.13;5072596;28;1274;-37
2023/08/13 06:27:54;;;;;;;;;;;;;;;24.12;43.49;101106.88;5066026;28;1387;-38
2023/08/13 06:30:20;;;;;;;;;;;;;;;21.00;49.98;101093.41;5071971;28;1126;-40
2023/08/13 06:32:45;;;;;;;;;;;;;;;23.46;45.29;101098.94;5057657;28;1191;-40
2023/08/13 06:35:11;;;;;;;;;;;;;;;24.75;40.77;101108.72;5058463;28;1071;-40
2023/08/13 06:37:36;;;;;;;;;;;;;;;24.42;43.43;101107.47;5071915;28;1075;-40
2023/08/13 06:40:02;;;;;;;;;;;;;;;22.63;45.53;101109.38;5058657;28;1910;-40
2023/08/13 06:42:28;;;;;;;;;;;;;;;24.29;43.22;101099.81;5058379;28;1052;-38
2023/08/13 06:44:54;;;;;;;;;;;;;;;22.93;44.40;101103.94;5069810;28;1120;-40
2023/08/13 06:47:19;;;;;;;;;;;;;;;23.73;44.06;101102.63;5062849;28;1861;-39
2023/08/13 06:49:45;;;;;;;;;;;;;;;23.58;43.17;101108.50;5072171;28;1390;-35
2023/08/13 06:52:10;;;;;;;;;;;;;;;22.65;48.47;101087.78;5058497;28;1000;-37
2023/08/13 06:54:36;;;;;;;;;;;;;;;24.97;41.78;101107.38;5058568;28;1122;-40
2023/08/13 06:57:02;;;;;;;;;;;;;;;22.02;50.50;101102.31;5074773;28;1167;-39
2023/08/13 06:59:27;;;;;;;;;;;;;;;24.65;41.78;101096.22;5058166;28;1190;-40
2023/08/13 07:01:53;;;;;;;;;;;;;;;22.56;46.17;101100.19;5071292;28;1918;-38
2023/08/13 07:04:19;;;;;;;;;;;;;;;23.80;44.11;101092.09;5070822;28;1020;-37
2023/08/13 07:06:44;;;;;;;;;;;;;;;22.98;45.08;101099.00;5077671;28;1174;-37
2023/08/13 07:09:10;;;;;;;;;;;;;;;23.09;46.46;101100.63;5058533;28;1028;-40
2023/08/13 07:11:36;;;;;;;;;;;;;;;24.35;41.71;101082.22;5063612;28;1100;-38
2023/08/13 07:14:03;;;;;;;;;;;;;;;22.32;49.93;101088.91;5077853;28;1082;-39
2023/08/13 07:16:29;;;;;;;;;;;;;;;24.53;42.11;101084.88;5075513;28;2694;-33
2023/08/13 07:18:54;;;;;;;;;;;;;;;22.23;46.67;101093.31;5065184;28;1058;-40
2023/08/13 07:21:20;;;;;;;;;;;;;;;23.42;45.08;101084.97;5074503;28;1980;-40
2023/08/13 07:23:45;;;;;;;;;;;;;;;23.64;42.51;101093.59;5070639;28;1088;-38
2023/08/13 07:26:11;;;;;;;;;;;;;;;22.06;50.21;101097.53;5077538;28;1134;-37
2023/08/13 07:28:40;;;;;;;;;;;;;;;24.64;41.72;101097.19;5077330;28;1201;-37
2023/08/13 07:31:05;;;;;;;;;;;;;;;22.18;46.37;101094.72;5070854;28;1012;-38
2023/08/13 07:33:31;;;;;;;;;;;;;;;23.92;43.37;101090.03;5068148;28;1040;-43
2023/08/13 07:35:58;;;;;;;;;;;;;;;23.18;43.48;101089.03;5064075;28;1090;-36
2023/08/13 07:38:23;;;;;;;;;;;;;;;23.24;44.89;101082.19;5062979;28;1090;-40
2023/08/13 07:40:49;;;;;;;;;;;;;;;25.17;39.89;101085.59;5050737;28;1985;-40
2023/08/13 07:43:15;;;;;;;;;;;;;;;22.03;46.72;101079.06;5076499;28;1047;-39
2023/08/13 07:45:40;;;;;;;;;;;;;;;24.33;41.99;101079.69;5072191;28;2521;-41
2023/08/13 07:48:06;;;;;;;;;;;;;;;23.02;43.65;101086.13;5064333;28;990;-40
2023/08/13 07:50:31;;;;;;;;;;;;;;;22.51;47.38;101089.88;5070749;28;1059;-39
2023/08/13 07:52:57;;;;;;;;;;;;;;;25.04;40.30;101086.88;5070617;28;1073;-40
2023/08/13 07:55:22;;;;;;;;;;;;;;;22.14;46.04;101086.97;5067648;28;1508;-40
2023/08/13 07:57:48;;;;;;;;;;;;;;;23.51;44.15;101085.91;5063528;28;1291;-38
2023/08/13 08:00:16;;;;;;;;;;;;;;;23.37;42.59;101100.69;5062808;28;1922;-40
2023/08/13 08:02:44;;;;;;;;;;;;;;;22.08;49.13;101084.84;5057833;28;1055;-39
2023/08/13 08:05:12;;;;;;;;;;;;;;;24.67;40.95;101082.59;5074250;28;1123;-40
2023/08/13 08:07:37;;;;;;;;;;;;;;;22.57;44.91;101089.31;5076716;28;1229;-38
2023/08/13 08:10:03;;;;;;;;;;;;;;;22.57;47.05;101091.16;5071812;28;1262;-37
2023/08/13 08:12:29;;;;;;;;;;;;;;;25.10;40.26;101080.00;5069761;28;1037;-37
2023/08/13 08:14:55;;;;;;;;;;;;;;;21.94;46.49;101069.19;5064649;28;1088;-40
2023/08/13 08:17:20;;;;;;;;;;;;;;;23.68;43.58;101076.22;5053522;28;2356;-37
2023/08/13 08:19:48;;;;;;;;;;;;;;;23.34;42.19;101087.53;5074929;28;1096;-40
2023/08/13 08:22:17;;;;;;;;;;;;;;;21.75;48.49;101081.53;5066535;28;1058;-36
2023/08/13 08:24:42;;;;;;;;;;;;;;;24.49;40.71;101088.03;5062786;28;1138;-35
2023/08/13 08:27:08;;;;;;;;;;;;;;;22.75;43.50;101086.75;5070494;28;1042;-39
2023/08/13 08:29:34;;;;;;;;;;;;;;;22.58;46.19;101093.69;5076053;28;1176;-37
2023/08/13 08:32:00;;;;;;;;;;;;;;;25.40;38.70;101079.63;5076230;28;1067;-39
2023/08/13 08:34:26;;;;;;;;;;;;;;;22.12;45.57;101069.34;5069529;28;1074;-37
2023/08/13 08:36:51;;;;;;;;;;;;;;;23.23;44.19;101070.66;5065954;28;1068;-38
2023/08/13 08:39:18;;;;;;;;;;;;;;;24.02;40.35;101060.41;5067963;28;1356;-36
2023/08/13 08:41:47;;;;;;;;;;;;;;;21.72;47.25;101071.13;5054409;28;1906;-38
2023/08/13 08:44:21;;;;;;;;;;;;;;;23.60;43.67;101071.59;5058348;28;1282;-40
2023/08/13 08:46:51;;;;;;;;;;;;;;;23.31;42.62;101063.66;5051864;28;2363;-41
2023/08/13 08:49:21;;;;;;;;;;;;;;;21.80;46.92;101067.78;5055799;28;976;-39
2023/08/13 08:51:47;;;;;;;;;;;;;;;22.60;45.44;101058.69;5056285;28;1052;-37
2023/08/13 08:54:13;;;;;;;;;;;;;;;25.17;39.51;101075.66;5071569;28;1016;-39
2023/08/13 08:56:38;;;;;;;;;;;;;;;22.77;45.95;101067.00;5075569;28;1063;-38
2023/08/13 08:59:04;;;;;;;;;;;;;;;21.87;48.23;101066.22;5065198;28;1245;-39
2023/08/13 09:01:30;;;;;;;;;;;;;;;22.11;48.94;101063.13;5072635;28;1972;-38
2023/08/13 09:03:55;;;;;;;;;;;;;;;22.65;48.99;101052.94;5075118;28;1074;-41
2023/08/13 09:06:21;;;;;;;;;;;;;;;22.94;49.82;101050.13;5075875;28;1135;-38
2023/08/13 09:08:47;;;;;;;;;;;;;;;25.65;41.37;101063.56;5057825;28;1035;-37
2023/08/13 09:11:12;;;;;;;;;;;;;;;23.20;45.80;101044.09;5067296;28;968;-38
2023/08/13 09:13:46;;;;;;;;;;;;;;;24.47;44.88;101058.63;5075614;28;1023;-37
2023/08/13 09:16:12;;;;;;;;;;;;;;;25.66;39.17;101047.22;5059379;28;2634;-38
2023/08/13 09:18:38;;;;;;;;;;;;;;;22.93;47.17;101051.16;5039478;28;1321;-35
2023/08/13 09:21:04;;;;;;;;;;;;;;;24.39;44.85;101050.50;5065838;28;1984;-37
2023/08/13 09:23:29;;;;;;;;;;;;;;;24.26;42.70;101043.66;5055819;28;1497;-35
2023/08/13 09:25:55;;;;;;;;;;;;;;;23.27;47.84;101051.56;5056355;28;1099;-39
2023/08/13 09:28:21;;;;;;;;;;;;;;;25.47;41.48;101042.94;5054700;28;1219;-37
2023/08/13 09:30:47;;;;;;;;;;;;;;;23.28;44.75;101040.66;5061720;28;1150;-40
2023/08/13 09:33:16;;;;;;;;;;;;;;;24.89;42.27;101046.22;5075719;28;1035;-41
2023/08/13 09:35:41;;;;;;;;;;;;;;;24.33;40.76;101044.72;5062119;28;1199;-38
2023/08/13 09:38:07;;;;;;;;;;;;;;;22.92;44.93;101025.28;5068387;28;1013;-41
2023/08/13 09:40:33;;;;;;;;;;;;;;;24.73;41.81;101040.75;5075568;28;1985;-37
2023/08/13 09:42:59;;;;;;;;;;;;;;;23.90;41.24;101032.94;5057723;28;1107;-41
2023/08/13 09:45:26;;;;;;;;;;;;;;;23.54;44.27;101041.81;5054297;28;1058;-40
2023/08/13 09:47:52;;;;;;;;;;;;;;;25.26;39.92;101041.53;5058499;28;2595;-40
2023/08/13 09:50:17;;;;;;;;;;;;;;;22.95;45.30;101038.44;5057079;28;1360;-37
2023/08/13 09:52:43;;;;;;;;;;;;;;;25.07;39.66;101029.19;5055567;28;1041;-39
2023/08/13 09:55:12;;;;;;;;;;;;;;;23.11;43.11;101039.63;5057012;28;1067;-41
2023/08/13 09:57:41;;;;;;;;;;;;;;;25.23;38.89;101033.78;5074587;28;1225;-40
2023/08/13 10:00:07;;;;;;;;;;;;;;;24.02;40.10;101037.06;5059712;28;1901;-40
2023/08/13 10:02:32;;;;;;;;;;;;;;;23.97;41.44;101036.69;5070823;28;1055;-40
2023/08/13 10:04:58;;;;;;;;;;;;;;;25.65;36.57;101040.16;5055069;28;1115;-40
2023/08/13 10:07:24;;;;;;;;;;;;;;;22.78;43.11;101045.41;5060094;28;1360;-39
2023/08/13 10:09:49;;;;;;;;;;;;;;;24.40;40.32;101033.34;5053436;28;1040;-42
2023/08/13 10:12:15;;;;;;;;;;;;;;;23.55;40.97;101030.94;5035409;28;912;-41
2023/08/13 10:14:40;;;;;;;;;;;;;;;24.14;40.99;101029.59;5035031;28;1033;-43
2023/08/13 10:17:06;;;;;;;;;;;;;;;25.40;36.07;101034.69;5033021;28;2530;-40
2023/08/13 10:19:33;;;;;;;;;;;;;;;23.17;41.92;101016.72;5076863;28;1107;-39
2023/08/13 10:21:59;;;;;;;;;;;;;;;25.58;36.96;101019.38;5061048;28;1914;-40
2023/08/13 10:24:28;;;;;;;;;;;;;;;23.24;41.88;101032.06;5066649;28;1031;-44
2023/08/13 10:26:53;;;;;;;;;;;;;;;23.95;44.72;101023.41;5060996;28;1033;-43
2023/08/13 10:29:19;;;;;;;;;;;;;;;24.18;45.08;101022.94;5078296;28;964;-40
2023/08/13 10:31:54;;;;;;;;;;;;;;;23.89;44.17;101023.19;5078572;28;1111;-41
2023/08/13 10:34:19;;;;;;;;;;;;;;;24.91;43.78;101029.94;5058915;28;1165;-40
2023/08/13 10:36:47;;;;;;;;;;;;;;;26.28;40.31;101028.88;5040240;28;1309;-39
2023/08/13 10:39:29;;;;;;;;;;;;;;;24.75;43.39;101020.78;5041655;28;1242;-40
2023/08/13 10:41:54;;;;;;;;;;;;;;;23.99;46.50;101006.97;5069379;28;1906;-37
2023/08/13 10:44:29;;;;;;;;;;;;;;;24.50;47.23;101017.09;5060604;28;1091;-41
2023/08/13 10:46:55;;;;;;;;;;;;;;;26.71;39.67;101022.38;5066039;28;2607;-42
2023/08/13 10:49:21;;;;;;;;;;;;;;;23.77;45.05;101012.69;5063750;28;985;-42
2023/08/13 10:51:49;;;;;;;;;;;;;;;23.51;45.65;101010.75;5078611;28;1127;-41
2023/08/13 10:54:15;;;;;;;;;;;;;;;25.69;41.84;101019.13;5077871;28;1007;-43
2023/08/13 10:56:45;;;;;;;;;;;;;;;25.07;42.94;101019.25;5068490;28;1271;-42
2023/08/13 10:59:11;;;;;;;;;;;;;;;24.53;44.29;101014.09;5069346;28;1251;-42
2023/08/13 11:01:40;;;;;;;;;;;;;;;24.23;45.04;100998.28;5067764;28;1976;-41
2023/08/13 11:04:07;;;;;;;;;;;;;;;24.37;44.31;101014.84;5049694;28;1440;-42
2023/08/13 11:06:32;;;;;;;;;;;;;;;24.34;44.68;101014.16;5066526;28;1287;-38
2023/08/13 11:08:58;;;;;;;;;;;;;;;23.80;44.25;100990.03;5051264;28;1381;-41
2023/08/13 11:11:23;;;;;;;;;;;;;;;24.11;45.46;101011.09;5050925;28;1628;-42
2023/08/13 11:13:49;;;;;;;;;;;;;;;26.37;40.87;101001.91;5072531;28;1129;-42
2023/08/13 11:16:15;;;;;;;;;;;;;;;25.31;40.59;101001.50;5065620;28;1853;-44
2023/08/13 11:18:40;;;;;;;;;;;;;;;24.44;44.13;100989.84;5076422;28;1111;-44
2023/08/13 11:21:06;;;;;;;;;;;;;;;24.10;44.44;100998.66;5077311;28;1902;-44
2023/08/13 11:23:31;;;;;;;;;;;;;;;23.99;44.12;100980.09;5072150;28;1110;-43
2023/08/13 11:25:57;;;;;;;;;;;;;;;23.75;43.43;100984.28;5051477;28;1105;-44
2023/08/13 11:28:22;;;;;;;;;;;;;;;23.95;42.37;100988.50;5055991;28;1061;-43
2023/08/13 11:30:49;;;;;;;;;;;;;;;25.10;40.29;100979.56;5069295;28;1214;-43
2023/08/13 11:33:15;;;;;;;;;;;;;;;27.14;36.55;100983.44;5077550;28;1116;-43
2023/08/13 11:35:40;;;;;;;;;;;;;;;24.56;39.71;100984.19;5071869;28;1046;-44
2023/08/13 11:38:06;;;;;;;;;;;;;;;24.61;40.49;100979.16;5062949;28;1143;-44
2023/08/13 11:40:32;;;;;;;;;;;;;;;23.85;41.53;100961.72;5058883;28;1930;-39
2023/08/13 11:42:58;;;;;;;;;;;;;;;23.66;44.79;100983.34;5059817;28;1187;-43
2023/08/13 11:45:24;;;;;;;;;;;;;;;26.31;37.92;100978.31;5077189;28;1098;-42
2023/08/13 11:47:50;;;;;;;;;;;;;;;24.29;42.48;100981.50;5057164;28;2700;-36
2023/08/13 11:50:19;;;;;;;;;;;;;;;24.21;43.91;100979.63;5069218;28;1045;-40
2023/08/13 11:53:00;;;;;;;;;;;;;;;24.03;44.88;100976.09;5076795;28;1242;-40
2023/08/13 11:55:25;;;;;;;;;;;;;;;24.24;43.35;100970.38;5075811;28;1399;-44
2023/08/13 11:57:51;;;;;;;;;;;;;;;23.62;44.33;100971.25;5058766;28;1469;-41
2023/08/13 12:00:17;;;;;;;;;;;;;;;23.83;43.08;100976.28;5053504;28;1905;-41
2023/08/13 12:02:42;;;;;;;;;;;;;;;26.24;38.11;100978.16;5024890;28;1065;-40
2023/08/13 12:05:12;;;;;;;;;;;;;;;24.98;38.36;100966.41;5056291;28;1197;-39
2023/08/13 12:07:40;;;;;;;;;;;;;;;24.29;40.35;100967.25;5067449;28;893;-39
2023/08/13 12:10:06;;;;;;;;;;;;;;;23.07;46.98;100960.44;5076983;28;1065;-41
2023/08/13 12:12:31;;;;;;;;;;;;;;;26.01;38.21;100984.22;5066869;28;1167;-38
2023/08/13 12:14:58;;;;;;;;;;;;;;;23.99;41.74;100964.81;5060864;28;1194;-38
2023/08/13 12:17:23;;;;;;;;;;;;;;;23.63;43.27;100968.41;5072228;28;2261;-35
2023/08/13 12:19:49;;;;;;;;;;;;;;;26.35;36.98;100974.28;5076355;28;1031;-38
2023/08/13 12:22:14;;;;;;;;;;;;;;;24.41;39.66;100963.28;5076511;28;1985;-33
2023/08/13 12:24:40;;;;;;;;;;;;;;;23.87;42.04;100958.00;5056548;28;1102;-34
2023/08/13 12:27:06;;;;;;;;;;;;;;;26.52;36.57;100957.03;5065077;28;1111;-40
2023/08/13 12:29:31;;;;;;;;;;;;;;;23.84;41.07;100959.16;5075910;28;1106;-40
2023/08/13 12:31:57;;;;;;;;;;;;;;;24.57;40.34;100957.13;5072745;28;1079;-40
2023/08/13 12:34:23;;;;;;;;;;;;;;;26.29;36.15;100960.44;5051779;28;941;-38
2023/08/13 12:36:48;;;;;;;;;;;;;;;23.93;40.60;100952.88;5060094;28;996;-41
2023/08/13 12:39:14;;;;;;;;;;;;;;;25.23;38.69;100952.16;5064565;28;1024;-39
2023/08/13 12:41:39;;;;;;;;;;;;;;;25.92;34.70;100953.75;5075550;28;1968;-41